Time;durP1;ratioP1;P1;durP2;ratioP2;P2;SDS_P1;SDS_P2;PMS_P1;PMS_P2;Temp;Humidity;BMP_temperature;BMP_pressure;BME280_temperature;BME280_humidity;BME280_pressure;Samples;Min_cycle;Max_cycle;Signal;HPM_P1;HPM_P2
2022/09/05 00:00:13;;;;;;;6.45;5.80;;;;;;;17.65;nan;95609.66;5028744;28;20212;-65
2022/09/05 00:03:05;;;;;;;6.60;6.15;;;;;;;17.57;nan;95603.25;5029807;28;20217;-66
2022/09/05 00:05:48;;;;;;;9.13;8.25;;;;;;;17.61;nan;95602.16;5025817;28;20233;-65
2022/09/05 00:08:24;;;;;;;7.43;7.00;;;;;;;17.36;nan;95605.16;5029238;28;20329;-66
2022/09/05 00:11:03;;;;;;;8.52;7.82;;;;;;;17.53;nan;95600.00;5030273;28;20750;-66
2022/09/05 00:13:34;;;;;;;10.05;9.35;;;;;;;17.37;nan;95596.53;5028375;28;20263;-65
2022/09/05 00:16:27;;;;;;;8.82;8.13;;;;;;;17.41;nan;95610.91;5029120;28;21943;-67
2022/09/05 00:19:02;;;;;;;7.68;7.07;;;;;;;17.47;nan;95610.59;5030281;28;20754;-66
2022/09/05 00:21:46;;;;;;;8.75;8.07;;;;;;;17.70;nan;95601.72;5027395;28;21297;-67
2022/09/05 00:24:34;;;;;;;9.63;8.80;;;;;;;17.83;nan;95612.16;5027444;28;20298;-67
2022/09/05 00:27:09;;;;;;;8.43;7.72;;;;;;;17.95;nan;95607.19;5027668;28;20202;-66
2022/09/05 00:29:52;;;;;;;8.38;7.78;;;;;;;18.04;nan;95615.34;5027816;28;20676;-69
2022/09/05 00:32:28;;;;;;;8.73;8.13;;;;;;;17.80;nan;95608.03;5027646;28;20694;-67
2022/09/05 00:35:08;;;;;;;9.02;8.32;;;;;;;17.59;nan;95609.94;5029419;28;20234;-66
2022/09/05 00:37:41;;;;;;;10.02;9.00;;;;;;;17.57;nan;95606.63;5027726;28;20287;-67
2022/09/05 00:40:30;;;;;;;11.48;9.32;;;;;;;17.66;nan;95603.59;5026626;28;21326;-66
2022/09/05 00:43:02;;;;;;;9.73;9.00;;;;;;;17.60;nan;95601.31;5024348;28;20295;-67
2022/09/05 00:45:35;;;;;;;10.20;9.52;;;;;;;17.40;nan;95614.38;5027720;28;20284;-67
2022/09/05 00:48:26;;;;;;;10.23;9.15;;;;;;;17.33;nan;95616.41;5027159;28;20202;-68
2022/09/05 00:51:19;;;;;;;10.32;9.40;;;;;;;17.37;nan;95619.66;5023879;28;20476;-66
2022/09/05 00:54:04;;;;;;;15.32;10.27;;;;;;;17.32;nan;95614.75;5026202;28;20237;-67
2022/09/05 00:56:49;;;;;;;10.02;9.10;;;;;;;17.26;nan;95607.38;5027126;28;20226;-67
2022/09/05 00:59:51;;;;;;;10.65;9.82;;;;;;;17.54;nan;95611.94;5026756;28;20194;-67
2022/09/05 01:02:32;;;;;;;9.07;8.32;;;;;;;17.37;nan;95619.66;5022325;28;20298;-68
2022/09/05 01:05:03;;;;;;;9.32;8.63;;;;;;;17.53;nan;95618.00;5028925;28;20233;-66
2022/09/05 01:07:44;;;;;;;9.05;8.27;;;;;;;17.71;nan;95625.69;5027941;28;20695;-66
2022/09/05 01:10:24;;;;;;;9.52;8.60;;;;;;;17.54;nan;95622.22;5028365;28;20213;-66
2022/09/05 01:13:07;;;;;;;9.70;8.70;;;;;;;17.60;nan;95611.59;5028253;28;20268;-66
2022/09/05 01:15:44;;;;;;;8.10;7.45;;;;;;;17.50;nan;95613.00;5027095;28;20264;-67
2022/09/05 01:18:33;;;;;;;9.07;8.27;;;;;;;17.48;nan;95622.53;5028207;28;20226;-66
2022/09/05 01:21:41;;;;;;;16.02;13.15;;;;;;;17.46;nan;95613.25;5025701;28;20202;-67
2022/09/05 01:24:37;;;;;;;8.20;7.70;;;;;;;17.55;nan;95621.31;5015518;28;20314;-65
2022/09/05 01:27:38;;;;;;;9.55;8.82;;;;;;;17.55;nan;95617.91;5025371;28;20202;-66
2022/09/05 01:30:08;;;;;;;8.95;7.90;;;;;;;17.53;nan;95617.16;5028849;28;20976;-66
2022/09/05 01:32:46;;;;;;;9.52;8.60;;;;;;;17.41;nan;95610.06;5028177;28;20603;-67
2022/09/05 01:35:44;;;;;;;9.23;8.57;;;;;;;17.46;nan;95603.78;5027592;28;20206;-69
2022/09/05 01:38:21;;;;;;;9.05;8.35;;;;;;;17.62;nan;95604.63;5012858;28;20291;-67
2022/09/05 01:40:56;;;;;;;8.85;8.05;;;;;;;17.58;nan;95599.72;5027839;28;20202;-67
2022/09/05 01:43:34;;;;;;;8.13;7.30;;;;;;;17.59;nan;95602.22;5027678;28;20206;-67
2022/09/05 01:46:18;;;;;;;7.65;7.10;;;;;;;17.52;nan;95603.47;5028595;28;20202;-67
2022/09/05 01:48:52;;;;;;;9.25;8.63;;;;;;;17.59;nan;95604.81;5027947;28;20237;-69
2022/09/05 01:51:29;;;;;;;8.30;7.55;;;;;;;17.64;nan;95597.72;5027671;28;20210;-67
2022/09/05 01:54:08;;;;;;;8.40;7.80;;;;;;;17.54;nan;95606.81;5028446;28;20696;-67
2022/09/05 01:56:45;;;;;;;7.97;7.35;;;;;;;17.56;nan;95604.97;5028279;28;20241;-69
2022/09/05 01:59:27;;;;;;;8.73;7.85;;;;;;;17.59;nan;95609.94;5029087;28;20629;-68
2022/09/05 02:02:18;;;;;;;7.38;6.22;;;;;;;17.76;nan;95608.28;5027005;28;20202;-67
2022/09/05 02:05:11;;;;;;;7.07;6.57;;;;;;;17.69;nan;95607.75;5025415;28;21761;-67
2022/09/05 02:07:53;;;;;;;8.10;7.30;;;;;;;17.61;nan;95607.28;5026056;28;20590;-70
2022/09/05 02:10:47;;;;;;;7.43;6.93;;;;;;;17.49;nan;95613.09;5028586;28;20718;-68
2022/09/05 02:13:24;;;;;;;8.48;7.75;;;;;;;17.45;nan;95617.53;5025012;28;20298;-66
2022/09/05 02:16:01;;;;;;;7.60;6.90;;;;;;;17.46;nan;95619.22;5027218;28;20252;-68
2022/09/05 02:18:43;;;;;;;7.90;7.35;;;;;;;17.44;nan;95615.88;5027908;28;20699;-67
2022/09/05 02:21:18;;;;;;;7.50;6.90;;;;;;;17.45;nan;95611.56;5029103;28;20208;-66
2022/09/05 02:23:52;;;;;;;7.03;6.53;;;;;;;17.46;nan;95613.25;5027253;28;20711;-67
2022/09/05 02:26:26;;;;;;;7.03;6.43;;;;;;;17.52;nan;95616.31;5027726;28;20703;-68
2022/09/05 02:28:58;;;;;;;8.02;6.35;;;;;;;17.51;nan;95612.09;5029152;28;20251;-72
2022/09/05 02:31:32;;;;;;;7.38;6.88;;;;;;;17.50;nan;95610.44;5032374;28;20684;-68
2022/09/05 02:34:07;;;;;;;7.53;6.93;;;;;;;17.62;nan;95611.53;5031883;28;20198;-67
2022/09/05 02:36:43;;;;;;;6.93;6.50;;;;;;;17.47;nan;95617.47;5030247;28;20668;-67
2022/09/05 02:39:20;;;;;;;8.57;7.15;;;;;;;17.41;nan;95621.19;5032181;28;20668;-67
2022/09/05 02:41:55;;;;;;;7.40;6.68;;;;;;;17.59;nan;95621.97;5030957;28;20317;-67
2022/09/05 02:44:29;;;;;;;7.43;6.72;;;;;;;17.42;nan;95625.41;5031275;28;20205;-68
2022/09/05 02:47:07;;;;;;;7.03;6.53;;;;;;;17.54;nan;95617.09;5030381;28;21366;-67
2022/09/05 02:49:45;;;;;;;6.88;6.32;;;;;;;17.48;nan;95622.53;5031344;28;20202;-67
2022/09/05 02:52:17;;;;;;;6.43;5.93;;;;;;;17.45;nan;95622.69;5031687;28;20206;-66
2022/09/05 02:54:47;;;;;;;6.68;6.28;;;;;;;17.38;nan;95623.06;5031410;28;20230;-68
2022/09/05 02:57:33;;;;;;;6.20;5.60;;;;;;;17.34;nan;95632.66;5030558;28;20226;-66
2022/09/05 03:00:10;;;;;;;7.53;6.47;;;;;;;17.28;nan;95630.44;5030718;28;20749;-67
2022/09/05 03:02:57;;;;;;;5.45;5.07;;;;;;;17.32;nan;95634.50;5031694;28;20217;-66
2022/09/05 03:05:29;;;;;;;6.07;5.68;;;;;;;17.34;nan;95624.97;5032849;28;20198;-66
2022/09/05 03:08:18;;;;;;;6.22;4.72;;;;;;;17.32;nan;95634.50;5031023;28;20198;-65
2022/09/05 03:11:25;;;;;;;6.15;5.65;;;;;;;17.39;nan;95643.53;5031074;28;20210;-66
2022/09/05 03:14:31;;;;;;;7.20;4.20;;;;;;;17.14;nan;95643.13;5032172;28;20212;-66
2022/09/05 03:17:49;;;;;;;5.75;4.68;;;;;;;17.24;nan;95636.63;5029891;28;20711;-67
2022/09/05 03:20:50;;;;;;;4.22;4.03;;;;;;;17.31;nan;95638.00;5031189;28;20301;-68
2022/09/05 03:23:58;;;;;;;4.53;4.22;;;;;;;17.41;nan;95643.47;5031916;28;20700;-67
2022/09/05 03:26:47;;;;;;;5.75;5.07;;;;;;;17.32;nan;95647.34;5026260;28;20245;-66
2022/09/05 03:29:37;;;;;;;5.75;4.55;;;;;;;17.25;nan;95641.69;5031319;28;20244;-67
2022/09/05 03:32:34;;;;;;;4.45;4.15;;;;;;;17.11;nan;95643.28;5031286;28;20208;-67
2022/09/05 03:35:43;;;;;;;4.88;4.45;;;;;;;17.07;nan;95645.19;5030211;28;20292;-66
2022/09/05 03:38:41;;;;;;;4.82;4.53;;;;;;;16.97;nan;95651.69;5030090;28;20669;-66
2022/09/05 03:41:23;;;;;;;5.53;5.13;;;;;;;17.08;nan;95653.69;5029268;28;20263;-67
2022/09/05 03:44:08;;;;;;;4.90;4.60;;;;;;;17.11;nan;95658.69;5030380;28;20265;-67
2022/09/05 03:46:53;;;;;;;5.25;4.85;;;;;;;17.18;nan;95660.88;5030196;28;20647;-66
2022/09/05 03:49:44;;;;;;;5.45;4.80;;;;;;;17.19;nan;95662.53;5030137;28;20627;-66
2022/09/05 03:52:17;;;;;;;15.82;5.70;;;;;;;17.17;nan;95666.09;5021186;28;20209;-67
2022/09/05 03:55:01;;;;;;;6.57;5.30;;;;;;;17.24;nan;95664.88;5030429;28;21371;-66
2022/09/05 03:57:47;;;;;;;4.88;4.47;;;;;;;17.35;nan;95668.56;5029910;28;20778;-73
2022/09/05 04:00:24;;;;;;;5.45;5.15;;;;;;;17.44;nan;95672.41;5029994;28;20268;-66
2022/09/05 04:03:03;;;;;;;5.93;5.35;;;;;;;17.35;nan;95672.88;5030425;28;20628;-67
2022/09/05 04:05:32;;;;;;;5.50;5.13;;;;;;;17.17;nan;95673.78;5030089;28;20275;-67
2022/09/05 04:08:08;;;;;;;7.00;4.53;;;;;;;17.25;nan;95676.81;5028773;28;20229;-67
2022/09/05 04:10:44;;;;;;;6.82;5.35;;;;;;;17.24;nan;95693.16;5030100;28;20209;-65
2022/09/05 04:13:20;;;;;;;5.88;5.50;;;;;;;17.59;nan;95687.03;5029262;28;20202;-66
2022/09/05 04:15:51;;;;;;;5.63;4.97;;;;;;;17.63;nan;95691.13;5029479;28;20206;-66
2022/09/05 04:18:28;;;;;;;6.18;5.75;;;;;;;17.58;nan;95684.53;5028438;28;20226;-67
2022/09/05 04:21:02;;;;;;;5.22;4.93;;;;;;;17.51;nan;95693.50;5030072;28;20563;-66
2022/09/05 04:23:37;;;;;;;6.05;5.65;;;;;;;17.44;nan;95687.84;5029677;28;20585;-68
2022/09/05 04:26:23;;;;;;;6.00;5.15;;;;;;;17.72;nan;95696.75;5027511;28;20263;-68
2022/09/05 04:29:03;;;;;;;5.43;5.13;;;;;;;17.60;nan;95703.28;5027842;28;20194;-67
2022/09/05 04:31:41;;;;;;;6.28;5.68;;;;;;;17.38;nan;95700.97;5028168;28;20198;-68
2022/09/05 04:34:26;;;;;;;7.95;5.78;;;;;;;17.51;nan;95707.19;5028673;28;20290;-67
2022/09/05 04:37:01;;;;;;;10.35;6.53;;;;;;;17.46;nan;95708.31;5027486;28;20225;-66
2022/09/05 04:39:28;;;;;;;7.68;6.20;;;;;;;17.29;nan;95722.00;5028294;28;20205;-68
2022/09/05 04:42:06;;;;;;;7.57;6.15;;;;;;;17.34;nan;95722.59;5029667;28;20208;-66
2022/09/05 04:44:40;;;;;;;6.25;5.85;;;;;;;17.60;nan;95727.25;5029824;28;20226;-67
2022/09/05 04:47:11;;;;;;;6.30;5.90;;;;;;;17.71;nan;95736.22;5029005;28;20209;-70
2022/09/05 04:49:41;;;;;;;7.03;6.53;;;;;;;17.90;nan;95735.19;5029273;28;20233;-66
2022/09/05 04:52:32;;;;;;;7.53;6.60;;;;;;;17.89;nan;95740.41;5028330;28;20287;-67
2022/09/05 04:55:06;;;;;;;6.60;6.05;;;;;;;17.93;nan;95736.78;5029400;28;20750;-67
2022/09/05 04:57:41;;;;;;;8.23;7.50;;;;;;;17.51;nan;95730.31;5028026;28;20341;-66
2022/09/05 05:00:14;;;;;;;7.30;6.60;;;;;;;17.68;nan;95739.75;5029662;28;20271;-67
2022/09/05 05:02:44;;;;;;;7.40;6.75;;;;;;;17.66;nan;95737.28;5028866;28;21246;-69
2022/09/05 05:05:20;;;;;;;7.45;6.85;;;;;;;17.65;nan;95738.19;5029584;28;20222;-68
2022/09/05 05:07:54;;;;;;;7.15;6.45;;;;;;;17.77;nan;95747.03;5027270;28;20712;-67
2022/09/05 05:10:30;;;;;;;7.38;6.78;;;;;;;18.12;nan;95755.47;5029259;28;20855;-66
2022/09/05 05:13:07;;;;;;;6.65;6.15;;;;;;;18.19;nan;95746.53;5028474;28;20240;-67
2022/09/05 05:15:44;;;;;;;7.22;6.55;;;;;;;18.32;nan;95750.09;5028599;28;20202;-67
2022/09/05 05:18:21;;;;;;;7.05;6.55;;;;;;;19.47;nan;95754.09;5028185;28;20730;-68
2022/09/05 05:20:56;;;;;;;6.53;5.95;;;;;;;20.86;nan;95757.75;5029170;28;20574;-68
2022/09/05 05:23:33;;;;;;;7.25;5.53;;;;;;;23.01;nan;95756.25;5028245;28;20850;-67
2022/09/05 05:26:02;;;;;;;6.43;5.80;;;;;;;22.48;nan;95760.81;5029045;28;20738;-69
2022/09/05 05:28:50;;;;;;;7.32;5.15;;;;;;;21.88;nan;95763.19;5027308;28;20696;-70
2022/09/05 05:31:22;;;;;;;8.40;5.85;;;;;;;20.70;nan;95759.63;5028443;28;20324;-67
2022/09/05 05:33:50;;;;;;;6.45;6.15;;;;;;;19.59;nan;95769.72;5029190;28;20789;-68
2022/09/05 05:36:23;;;;;;;5.30;4.85;;;;;;;19.03;nan;95770.34;5026684;28;20267;-68
2022/09/05 05:38:56;;;;;;;6.65;5.32;;;;;;;18.46;nan;95767.41;5027948;28;20280;-68
2022/09/05 05:41:27;;;;;;;5.30;4.90;;;;;;;18.53;nan;95773.06;5028555;28;20310;-66
2022/09/05 05:43:56;;;;;;;5.80;5.40;;;;;;;18.55;nan;95771.25;5028742;28;20207;-69
2022/09/05 05:46:32;;;;;;;6.00;5.40;;;;;;;18.38;nan;95766.13;5029123;28;20319;-68
2022/09/05 05:49:26;;;;;;;5.70;5.05;;;;;;;18.21;nan;95772.19;5028278;28;20209;-69
2022/09/05 05:52:05;;;;;;;5.47;5.00;;;;;;;19.31;nan;95777.34;5028367;28;20243;-68
2022/09/05 05:54:40;;;;;;;7.75;4.72;;;;;;;19.70;nan;95780.25;5029447;28;20233;-67
2022/09/05 05:57:39;;;;;;;5.03;4.63;;;;;;;19.79;nan;95778.06;5027336;28;20229;-69
2022/09/05 06:00:17;;;;;;;4.50;4.03;;;;;;;20.15;nan;95780.22;5027199;28;20724;-68
2022/09/05 06:03:23;;;;;;;4.60;4.30;;;;;;;20.15;nan;95786.22;5027008;28;20261;-68
2022/09/05 06:06:14;;;;;;;4.05;3.85;;;;;;;20.40;nan;95780.44;5025944;28;21025;-69
2022/09/05 06:09:16;;;;;;;4.53;3.53;;;;;;;21.62;nan;95776.09;5025299;28;20202;-67
2022/09/05 06:12:05;;;;;;;4.07;3.78;;;;;;;25.20;nan;95768.13;5026937;28;20202;-68
2022/09/05 06:15:29;;;;;;;3.35;3.03;;;;;;;28.20;nan;95772.63;5025689;28;20206;-69
2022/09/05 06:18:28;;;;;;;4.45;4.05;;;;;;;28.74;nan;95766.66;5026180;28;20292;-68
2022/09/05 06:21:24;;;;;;;5.05;4.60;;;;;;;28.42;nan;95762.69;5027284;28;20206;-67
2022/09/05 06:24:26;;;;;;;4.20;3.50;;;;;;;29.73;nan;95765.72;5027211;28;20233;-68
2022/09/05 06:27:25;;;;;;;6.18;3.28;;;;;;;28.63;nan;95778.13;5029155;28;20209;-68
2022/09/05 06:29:59;;;;;;;4.40;2.97;;;;;;;27.47;nan;95780.09;4992863;28;20687;-68
2022/09/05 06:32:57;;;;;;;3.58;3.28;;;;;;;27.50;nan;95787.66;5023871;28;20206;-69
2022/09/05 06:35:37;;;;;;;3.67;3.38;;;;;;;27.34;nan;95792.59;5027215;28;20259;-66
2022/09/05 06:38:22;;;;;;;3.92;3.53;;;;;;;27.36;nan;95785.47;5027125;28;20279;-69
2022/09/05 06:41:01;;;;;;;4.57;3.28;;;;;;;27.34;nan;95789.97;5027380;28;20879;-67
2022/09/05 06:43:43;;;;;;;3.45;3.15;;;;;;;25.99;nan;95790.25;5026570;28;20283;-66
2022/09/05 06:46:29;;;;;;;3.78;3.42;;;;;;;24.27;nan;95801.38;5027544;28;20194;-66
2022/09/05 06:49:05;;;;;;;3.53;3.30;;;;;;;23.64;nan;95807.84;5027520;28;20190;-68
2022/09/05 06:52:05;;;;;;;3.88;3.58;;;;;;;23.98;nan;95797.56;5026793;28;20236;-66
2022/09/05 06:55:17;;;;;;;3.53;3.33;;;;;;;27.86;nan;95790.56;5026841;28;20234;-67
2022/09/05 06:58:15;;;;;;;3.13;2.92;;;;;;;30.45;nan;95782.13;5015947;28;20268;-66
2022/09/05 07:00:47;;;;;;;3.90;3.33;;;;;;;29.20;nan;95783.25;5027883;28;20974;-68
2022/09/05 07:03:26;;;;;;;3.65;3.35;;;;;;;27.65;nan;95788.09;5028845;28;20987;-68
2022/09/05 07:05:58;;;;;;;3.38;3.13;;;;;;;28.32;nan;95790.63;5027003;28;20734;-68
2022/09/05 07:08:30;;;;;;;5.97;3.88;;;;;;;27.25;nan;95790.78;5025916;28;20209;-66
2022/09/05 07:11:03;;;;;;;5.82;3.50;;;;;;;25.45;nan;95790.41;5026795;28;20708;-68
2022/09/05 07:13:36;;;;;;;9.02;3.58;;;;;;;25.41;nan;95784.59;5028448;28;20202;-67
2022/09/05 07:16:14;;;;;;;3.08;2.90;;;;;;;26.93;nan;95788.38;5029002;28;21318;-68
2022/09/05 07:18:49;;;;;;;6.18;3.17;;;;;;;26.10;nan;95792.78;5030237;28;20283;-68
2022/09/05 07:21:26;;;;;;;3.40;3.20;;;;;;;25.32;nan;95790.53;5032524;28;20212;-67
2022/09/05 07:24:00;;;;;;;4.28;3.88;;;;;;;27.27;nan;95788.88;5031339;28;20213;-68
2022/09/05 07:26:29;;;;;;;3.28;3.03;;;;;;;28.53;nan;95773.91;5032020;28;20622;-66
2022/09/05 07:29:03;;;;;;;3.38;3.08;;;;;;;27.31;nan;95780.63;5030555;28;20268;-66
2022/09/05 07:31:33;;;;;;;2.85;2.67;;;;;;;27.77;nan;95774.75;5031770;28;20590;-67
2022/09/05 07:34:10;;;;;;;3.15;3.00;;;;;;;28.39;nan;95781.25;5031233;28;21586;-67
2022/09/05 07:36:43;;;;;;;3.40;3.10;;;;;;;28.14;nan;95779.25;5030013;28;20972;-67
2022/09/05 07:39:15;;;;;;;3.40;3.20;;;;;;;28.30;nan;95782.09;5030178;28;20230;-67
2022/09/05 07:41:49;;;;;;;3.58;3.28;;;;;;;28.10;nan;95780.47;5031670;28;20222;-67
2022/09/05 07:44:22;;;;;;;3.53;3.33;;;;;;;26.66;nan;95775.94;5030701;28;20217;-66
2022/09/05 07:46:53;;;;;;;3.22;3.03;;;;;;;26.69;nan;95786.94;5029725;28;20218;-68
2022/09/05 07:49:24;;;;;;;3.72;3.42;;;;;;;26.85;nan;95783.81;5029982;28;20217;-67
2022/09/05 07:51:55;;;;;;;2.83;2.72;;;;;;;27.28;nan;95774.84;5027402;28;20264;-67
2022/09/05 07:54:26;;;;;;;3.45;3.10;;;;;;;28.61;nan;95776.63;5028093;28;20296;-67
2022/09/05 07:56:56;;;;;;;2.70;2.50;;;;;;;28.70;nan;95788.84;5029678;28;20213;-66
2022/09/05 07:59:27;;;;;;;3.15;2.85;;;;;;;28.55;nan;95777.19;5028444;28;20349;-65
2022/09/05 08:01:55;;;;;;;3.15;2.95;;;;;;;27.49;nan;95782.56;5024547;28;20333;-67
2022/09/05 08:04:26;;;;;;;7.75;3.28;;;;;;;26.41;nan;95793.69;5027311;28;20203;-68
2022/09/05 08:06:58;;;;;;;4.85;4.55;;;;;;;25.37;nan;95791.00;5028116;28;20226;-67
2022/09/05 08:09:30;;;;;;;4.50;3.47;;;;;;;25.81;nan;95785.75;5030385;28;20226;-68
2022/09/05 08:12:01;;;;;;;3.70;3.40;;;;;;;25.90;nan;95782.41;5029622;28;20206;-68
2022/09/05 08:14:40;;;;;;;3.25;3.05;;;;;;;25.57;nan;95778.97;5030299;28;21565;-65
2022/09/05 08:17:12;;;;;;;3.50;3.30;;;;;;;26.25;nan;95782.84;5029620;28;21336;-66
2022/09/05 08:20:06;;;;;;;4.25;3.85;;;;;;;25.33;nan;95788.75;5029025;28;20234;-68
2022/09/05 08:22:46;;;;;;;4.60;4.20;;;;;;;25.44;nan;95788.75;5027803;28;20210;-68
2022/09/05 08:25:16;;;;;;;3.65;3.45;;;;;;;25.67;nan;95790.31;5029531;28;20300;-67
2022/09/05 08:27:59;;;;;;;4.05;3.03;;;;;;;25.33;nan;95780.97;5028413;28;20498;-68
2022/09/05 08:30:27;;;;;;;4.15;3.38;;;;;;;25.65;nan;95792.22;5030818;28;20703;-67
2022/09/05 08:33:00;;;;;;;4.80;3.42;;;;;;;25.34;nan;95793.03;5030979;28;20230;-68
2022/09/05 08:35:33;;;;;;;3.58;3.28;;;;;;;25.90;nan;95787.59;5028379;28;20206;-68
2022/09/05 08:38:02;;;;;;;3.25;3.05;;;;;;;25.96;nan;95779.28;5024901;28;20285;-67
2022/09/05 08:40:35;;;;;;;3.53;3.22;;;;;;;25.67;nan;95781.69;5029281;28;20288;-67
2022/09/05 08:43:12;;;;;;;3.40;3.10;;;;;;;25.51;nan;95783.84;5027948;28;20206;-67
2022/09/05 08:45:43;;;;;;;3.25;3.05;;;;;;;25.47;nan;95782.47;5030307;28;20206;-68
2022/09/05 08:48:22;;;;;;;3.50;3.30;;;;;;;25.91;nan;95784.88;5027079;28;20691;-70
2022/09/05 08:51:06;;;;;;;4.25;3.20;;;;;;;26.08;nan;95779.06;5029489;28;20202;-69
2022/09/05 08:53:48;;;;;;;7.93;6.70;;;;;;;26.59;nan;95782.63;5029245;28;20206;-70
2022/09/05 08:56:19;;;;;;;5.65;5.05;;;;;;;26.88;nan;95772.31;5028505;28;20202;-69
2022/09/05 08:58:57;;;;;;;3.53;3.22;;;;;;;26.60;nan;95784.28;5026786;28;20272;-68
2022/09/05 09:01:30;;;;;;;3.50;3.30;;;;;;;25.56;nan;95784.28;5030207;28;20218;-71
2022/09/05 09:04:19;;;;;;;3.35;3.15;;;;;;;24.70;nan;95790.31;5029867;28;20881;-68
2022/09/05 09:07:11;;;;;;;4.30;2.90;;;;;;;25.01;nan;95792.16;5028150;28;20647;-69
2022/09/05 09:09:48;;;;;;;3.30;3.10;;;;;;;24.75;nan;95788.97;5027333;28;20301;-67
2022/09/05 09:12:37;;;;;;;5.53;5.13;;;;;;;25.09;nan;95781.97;5028606;28;20209;-68
2022/09/05 09:15:16;;;;;;;3.42;3.22;;;;;;;25.09;nan;95789.78;5029548;28;20836;-68
2022/09/05 09:17:44;;;;;;;6.65;6.18;;;;;;;25.53;nan;95785.38;5028897;28;20676;-71
2022/09/05 09:20:36;;;;;;;9.52;8.52;;;;;;;25.89;nan;95788.56;5027674;28;20723;-68
2022/09/05 09:23:06;;;;;;;5.43;4.95;;;;;;;26.25;nan;95785.47;5023983;28;20213;-68
2022/09/05 09:25:41;;;;;;;3.88;3.67;;;;;;;26.17;nan;95782.69;5029100;28;20202;-69
2022/09/05 09:28:41;;;;;;;3.08;2.88;;;;;;;25.82;nan;95776.97;5027550;28;20330;-68
2022/09/05 09:31:15;;;;;;;3.72;3.53;;;;;;;25.54;nan;95783.59;5026812;28;20218;-69
2022/09/05 09:33:48;;;;;;;3.78;3.58;;;;;;;25.41;nan;95784.59;5025753;28;20358;-68
2022/09/05 09:36:45;;;;;;;2.97;2.78;;;;;;;25.26;nan;95782.41;5024941;28;20225;-68
2022/09/05 09:39:30;;;;;;;3.33;3.00;;;;;;;24.93;nan;95780.69;5023063;28;20909;-68
2022/09/05 09:42:11;;;;;;;3.42;3.22;;;;;;;24.87;nan;95774.19;5025413;28;20436;-70
2022/09/05 09:45:09;;;;;;;3.03;2.85;;;;;;;24.58;nan;95773.03;5020717;28;20198;-68
2022/09/05 09:47:55;;;;;;;4.70;2.95;;;;;;;24.68;nan;95768.81;5026072;28;20416;-68
2022/09/05 09:50:37;;;;;;;3.08;2.88;;;;;;;24.79;nan;95766.16;5022556;28;20679;-68
2022/09/05 09:53:26;;;;;;;3.67;2.83;;;;;;;24.66;nan;95761.13;5023331;28;20202;-68
2022/09/05 09:56:23;;;;;;;3.13;2.92;;;;;;;24.75;nan;95754.34;5024906;28;20190;-70
2022/09/05 09:59:12;;;;;;;2.60;2.40;;;;;;;25.11;nan;95760.22;5023895;28;20268;-69
2022/09/05 10:01:52;;;;;;;3.58;3.38;;;;;;;24.90;nan;95758.34;5023654;28;20676;-68
2022/09/05 10:04:43;;;;;;;3.15;3.00;;;;;;;24.72;nan;95758.03;5025912;28;20284;-68
2022/09/05 10:07:36;;;;;;;3.00;2.80;;;;;;;24.22;nan;95750.72;5026467;28;20355;-69
2022/09/05 10:10:48;;;;;;;3.53;3.20;;;;;;;24.42;nan;95747.44;5026825;28;21803;-68
2022/09/05 10:13:25;;;;;;;2.80;2.50;;;;;;;25.21;nan;95738.56;4984997;28;20247;-68
2022/09/05 10:16:22;;;;;;;5.35;4.20;;;;;;;25.85;nan;95730.69;4986957;28;20633;-70
2022/09/05 10:19:03;;;;;;;6.50;3.88;;;;;;;25.98;nan;95725.28;5015539;28;21073;-70
2022/09/05 10:21:54;;;;;;;3.25;3.10;;;;;;;25.94;nan;95721.28;5026329;28;20770;-70
2022/09/05 10:25:03;;;;;;;3.08;2.88;;;;;;;25.52;nan;95729.06;5027276;28;20206;-70
2022/09/05 10:28:04;;;;;;;3.50;3.15;;;;;;;25.04;nan;95724.28;5028456;28;20295;-68
2022/09/05 10:30:43;;;;;;;2.78;2.40;;;;;;;25.09;nan;95723.94;5031470;28;20214;-68
2022/09/05 10:33:39;;;;;;;3.65;3.45;;;;;;;25.11;nan;95719.44;5029439;28;20225;-68
2022/09/05 10:36:22;;;;;;;3.50;2.92;;;;;;;25.30;nan;95729.16;5013286;28;20651;-68
2022/09/05 10:39:01;;;;;;;4.30;3.10;;;;;;;25.26;nan;95727.75;5027974;28;20297;-68
2022/09/05 10:41:43;;;;;;;2.97;2.78;;;;;;;25.07;nan;95716.25;5026145;28;20283;-69
2022/09/05 10:44:13;;;;;;;3.53;3.33;;;;;;;24.99;nan;95710.84;5026886;28;20303;-69
2022/09/05 10:46:51;;;;;;;3.13;2.95;;;;;;;25.36;nan;95713.06;5029389;28;20347;-68
2022/09/05 10:49:24;;;;;;;3.30;3.03;;;;;;;25.55;nan;95722.78;5027721;28;20234;-68
2022/09/05 10:51:59;;;;;;;4.70;3.72;;;;;;;25.63;nan;95721.25;5030400;28;20203;-67
2022/09/05 10:54:36;;;;;;;3.75;3.55;;;;;;;25.85;nan;95717.66;5031211;28;20661;-68
2022/09/05 10:57:16;;;;;;;3.42;3.10;;;;;;;25.59;nan;95712.00;5033483;28;20725;-68
2022/09/05 11:00:04;;;;;;;2.83;2.50;;;;;;;25.47;nan;95714.81;5032939;28;20223;-68
2022/09/05 11:02:32;;;;;;;4.22;3.30;;;;;;;25.12;nan;95704.66;5032138;28;20210;-67
2022/09/05 11:05:09;;;;;;;3.15;2.95;;;;;;;24.98;nan;95703.19;5029831;28;20714;-68
2022/09/05 11:07:42;;;;;;;3.40;3.20;;;;;;;25.19;nan;95708.41;5031563;28;20213;-68
2022/09/05 11:10:14;;;;;;;4.03;3.05;;;;;;;25.46;nan;95700.97;5031041;28;20210;-67
2022/09/05 11:13:09;;;;;;;4.00;2.67;;;;;;;25.67;nan;95696.59;5030212;28;20306;-68
2022/09/05 11:15:57;;;;;;;2.85;2.65;;;;;;;25.43;nan;95698.59;5032172;28;20559;-68
2022/09/05 11:18:56;;;;;;;3.25;3.05;;;;;;;25.44;nan;95687.25;5031144;28;20238;-67
2022/09/05 11:21:32;;;;;;;3.35;2.75;;;;;;;25.73;nan;95684.88;5030126;28;20770;-69
2022/09/05 11:24:06;;;;;;;2.78;2.67;;;;;;;25.54;nan;95689.91;5029749;28;20234;-67
2022/09/05 11:26:37;;;;;;;4.57;3.42;;;;;;;24.91;nan;95689.81;5030894;28;20253;-71
2022/09/05 11:29:09;;;;;;;3.13;2.92;;;;;;;25.08;nan;95683.25;5030798;28;20234;-68
2022/09/05 11:31:55;;;;;;;2.95;2.75;;;;;;;24.95;nan;95688.66;5029742;28;21627;-69
2022/09/05 11:34:48;;;;;;;2.80;2.60;;;;;;;24.68;nan;95685.63;5029940;28;20210;-68
2022/09/05 11:37:33;;;;;;;2.90;2.70;;;;;;;24.76;nan;95678.03;5031282;28;20294;-69
2022/09/05 11:40:33;;;;;;;2.78;2.38;;;;;;;24.83;nan;95683.56;5032095;28;20299;-68
2022/09/05 11:43:36;;;;;;;10.13;2.97;;;;;;;24.24;nan;95683.91;5029298;28;20260;-69
2022/09/05 11:46:26;;;;;;;2.70;2.53;;;;;;;24.21;nan;95682.38;5029463;28;20267;-65
2022/09/05 11:49:30;;;;;;;4.13;2.80;;;;;;;24.55;nan;95679.72;5032065;28;20284;-69
2022/09/05 11:52:40;;;;;;;3.10;2.53;;;;;;;24.61;nan;95684.44;5032693;28;21856;-67
2022/09/05 11:55:33;;;;;;;2.78;2.58;;;;;;;24.38;nan;95673.28;5018922;28;20727;-71
2022/09/05 11:58:18;;;;;;;3.25;3.00;;;;;;;24.58;nan;95677.72;5030796;28;20202;-72
2022/09/05 12:00:51;;;;;;;3.20;2.90;;;;;;;24.63;nan;95666.97;5032171;28;20287;-69
2022/09/05 12:03:40;;;;;;;3.30;3.00;;;;;;;24.68;nan;95664.81;5029166;28;20263;-69
2022/09/05 12:06:30;;;;;;;5.03;3.35;;;;;;;24.97;nan;95663.34;5028843;28;20233;-69
2022/09/05 12:09:07;;;;;;;2.97;2.70;;;;;;;24.82;nan;95661.94;5029480;28;20279;-69
2022/09/05 12:11:50;;;;;;;3.55;2.67;;;;;;;24.88;nan;95656.25;5032418;28;20198;-68
2022/09/05 12:14:40;;;;;;;2.97;2.78;;;;;;;24.92;nan;95664.63;5028271;28;20737;-68
2022/09/05 12:17:20;;;;;;;2.85;2.53;;;;;;;24.76;nan;95657.22;5029871;28;20210;-68
2022/09/05 12:19:57;;;;;;;3.13;2.92;;;;;;;24.44;nan;95656.38;5030344;28;20798;-68
2022/09/05 12:22:29;;;;;;;3.58;3.28;;;;;;;24.75;nan;95658.16;5029645;28;20232;-68
2022/09/05 12:25:17;;;;;;;4.32;4.03;;;;;;;25.01;nan;95669.09;5030057;28;21372;-69
2022/09/05 12:27:47;;;;;;;3.50;3.30;;;;;;;25.22;nan;95656.16;5029931;28;20202;-68
2022/09/05 12:30:22;;;;;;;4.28;4.03;;;;;;;24.63;nan;95659.16;5029778;28;20203;-69
2022/09/05 12:32:51;;;;;;;3.33;3.03;;;;;;;24.52;nan;95654.81;5029299;28;20504;-68
2022/09/05 12:35:30;;;;;;;3.90;3.60;;;;;;;24.94;nan;95655.75;5029811;28;20211;-68
2022/09/05 12:38:03;;;;;;;4.70;4.30;;;;;;;24.44;nan;95656.38;5029294;28;20231;-69
2022/09/05 12:40:37;;;;;;;3.15;2.95;;;;;;;24.61;nan;95648.91;5031551;28;20802;-68
2022/09/05 12:43:05;;;;;;;3.40;3.20;;;;;;;24.99;nan;95658.81;5029214;28;20209;-69
2022/09/05 12:45:40;;;;;;;3.75;3.53;;;;;;;25.21;nan;95657.09;5030090;28;20229;-68
2022/09/05 12:48:13;;;;;;;4.18;3.20;;;;;;;24.94;nan;95663.56;5028855;28;20209;-68
2022/09/05 12:50:51;;;;;;;4.30;3.97;;;;;;;24.71;nan;95654.19;5028882;28;20206;-69
2022/09/05 12:53:20;;;;;;;3.67;3.38;;;;;;;24.85;nan;95653.91;5028800;28;20201;-69
2022/09/05 12:55:53;;;;;;;3.50;2.97;;;;;;;24.77;nan;95651.06;5028981;28;20206;-68